METAR Data
IDs: Format: Raw Decoded Include TAF

Data at: 0008 UTC 26 Oct 2021

KBMQ 252353Z AUTO 15005KT 10SM CLR 28/21 A2995 RMK AO2 SLP124 T02830211 10317 20283 53003
KBMQ 252253Z AUTO 15007KT 10SM CLR 30/21 A2994 RMK AO2 SLP121 T03000206
KBMQ 252153Z AUTO 16005KT 10SM CLR 31/20 A2994 RMK AO2 SLP120 T03060200
KBMQ 252053Z AUTO 16007KT 10SM CLR 32/21 A2994 RMK AO2 SLP120 T03170206 56021
KBMQ 251953Z AUTO 16006KT 9SM CLR 31/22 A2996 RMK AO2 SLP125 T03060217
KBMQ 251853Z AUTO VRB05KT 9SM CLR 31/22 A2998 RMK AO2 SLP133 T03060217
KBMQ 251753Z AUTO 20004KT 10SM CLR 29/22 A3000 RMK AO2 SLP143 T02890222 10294 20194 58006
KBMQ 251653Z AUTO 00000KT 10SM CLR 28/22 A3001 RMK AO2 SLP147 T02780222
KBMQ 251553Z AUTO 00000KT 10SM CLR 27/22 A3002 RMK AO2 SLP147 T02670222
KBMQ 251453Z AUTO 00000KT 10SM CLR 24/22 A3002 RMK AO2 SLP149 T02440217 53015
KBMQ 251353Z AUTO 00000KT 10SM CLR 23/21 A3000 RMK AO2 SLP144 T02280211
KBMQ 251253Z AUTO 00000KT 10SM CLR 20/19 A2999 RMK AO2 SLP139 T02000189
KBMQ 251203Z AUTO 22004KT 10SM FEW005 21/20 A2998 RMK AO2 T02060200
KBMQ 251153Z AUTO 23006KT 10SM CLR 21/20 A2998 RMK AO2 SLP134 T02110200 10217 20189 53008
KBMQ 251053Z AUTO 00000KT 10SM CLR 19/18 A2996 RMK AO2 SLP128 T01940178
KBMQ 250953Z AUTO 00000KT 10SM CLR 21/19 A2995 RMK AO2 SLP124 T02060189
KBMQ 250853Z AUTO 00000KT 10SM CLR 20/19 A2995 RMK AO2 SLP125 T02000189 51001
KBMQ 250753Z AUTO 00000KT 10SM CLR 21/19 A2995 RMK AO2 SLP123 T02110189
KBMQ 250653Z AUTO 00000KT 10SM CLR 21/19 A2995 RMK AO2 SLP125 T02110189
KBMQ 250553Z AUTO 00000KT 10SM CLR 21/19 A2995 RMK AO2 SLP124 T02110189 10267 20211 403000200 51014
KBMQ 250453Z AUTO 23004KT 10SM CLR 22/19 A2994 RMK AO2 SLP122 T02170189
KBMQ 250353Z AUTO 00000KT 10SM CLR 22/19 A2993 RMK AO2 SLP119 T02220194
KBMQ 250253Z AUTO 18004KT 10SM CLR 24/20 A2990 RMK AO2 SLP110 T02390200 53018
KBMQ 250153Z AUTO 17003KT 10SM CLR 24/19 A2988 RMK AO2 SLP103 T02390194
KBMQ 250053Z AUTO 17004KT 10SM CLR 26/20 A2987 RMK AO2 SLP098 T02560200
KBMQ 242353Z AUTO 17006KT 10SM CLR 27/20 A2985 RMK AO2 SLP091 T02670200 10300 20267 51003
KBMQ 242253Z AUTO 17007KT 10SM FEW043 28/20 A2985 RMK AO2 SLP090 T02830200
KBMQ 242153Z AUTO 17006G15KT 10SM FEW041 28/19 A2985 RMK AO2 SLP089 T02830194
KBMQ 242053Z AUTO 18008KT 10SM SCT042 29/20 A2984 RMK AO2 SLP086 T02940200 55014
KBMQ 241953Z AUTO 20009G17KT 10SM SCT040 29/19 A2984 RMK AO2 SLP086 T02940194
KBMQ 241853Z AUTO 20013G19KT 10SM CLR 28/20 A2986 RMK AO2 SLP093 T02830200
KBMQ 241803Z AUTO 17009G18KT 10SM SCT029 27/20 A2987 RMK AO2 T02720200
KBMQ 241753Z AUTO 20010G18KT 10SM BKN029 27/20 A2988 RMK AO2 SLP102 T02670200 10267 20211 58012
KBMQ 241735Z AUTO 18009G16KT 10SM SCT025 BKN030 27/20 A2989 RMK AO2 T02670200
KBMQ 241728Z AUTO 16007G15KT 10SM SCT023 BKN028 27/20 A2989 RMK AO2 T02670200
KBMQ 241653Z AUTO 18009G17KT 10SM SCT038 26/21 A2991 RMK AO2 SLP111 T02610206
KBMQ 241628Z AUTO 18006KT 10SM FEW015 FEW024 OVC036 24/21 A2993 RMK AO2 T02440206
KBMQ 241553Z AUTO 20006KT 10SM SCT013 BKN023 OVC032 23/21 A2994 RMK AO2 SLP124 T02330206
KBMQ 241453Z AUTO 17005KT 10SM BKN010 OVC031 23/21 A2992 RMK AO2 CIG 007V013 SLP116 T02280206 53016
KBMQ 241353Z AUTO 18004KT 10SM OVC008 22/20 A2990 RMK AO2 SLP107 T02170200
KBMQ 241305Z AUTO 18005KT 10SM BKN009 OVC014 22/20 A2988 RMK AO2 CIG 007V012 T02170200
KBMQ 241253Z AUTO 18007KT 10SM OVC012 21/20 A2987 RMK AO2 SLP100 T02110200